createdAt,value
2023-04-07T09:27:58.857Z,8.70
2023-04-07T09:30:27.261Z,8.70
2023-04-07T09:32:54.554Z,8.70
2023-04-07T09:35:23.280Z,8.60
2023-04-07T09:38:06.780Z,8.70
2023-04-07T09:40:34.508Z,8.70
2023-04-07T09:43:03.297Z,8.80
2023-04-07T09:45:35.394Z,8.80
2023-04-07T09:48:22.091Z,8.80
2023-04-07T09:50:49.711Z,8.70
2023-04-07T09:53:17.342Z,8.70
2023-04-07T09:55:45.025Z,8.70
2023-04-07T09:58:16.558Z,8.60
2023-04-07T10:00:44.385Z,8.70
2023-04-07T10:03:12.253Z,8.90
2023-04-07T10:05:39.763Z,9.20
2023-04-07T10:08:06.943Z,9.00
2023-04-07T10:10:36.890Z,9.10
2023-04-07T10:13:06.060Z,9.10
2023-04-07T10:15:33.431Z,9.30
2023-04-07T10:18:01.423Z,9.50
2023-04-07T10:20:29.967Z,9.30
2023-04-07T10:23:07.093Z,9.50
2023-04-07T10:25:36.729Z,9.40
2023-04-07T10:28:09.706Z,9.30
2023-04-07T10:30:37.304Z,9.30
2023-04-07T10:33:04.999Z,9.20
2023-04-07T10:36:05.120Z,9.30
2023-04-07T10:38:33.233Z,9.40
2023-04-07T10:41:00.430Z,9.20
2023-04-07T10:43:42.318Z,9.10
2023-04-07T10:46:09.252Z,9.20
2023-04-07T10:48:36.734Z,9.20
2023-04-07T10:51:08.102Z,9.30
2023-04-07T10:53:35.451Z,9.10
2023-04-07T10:56:02.835Z,9.10
2023-04-07T10:58:31.065Z,9.10
2023-04-07T11:01:01.077Z,8.90
2023-04-07T11:03:30.095Z,9.00
2023-04-07T11:06:10.618Z,9.30
2023-04-07T11:08:39.959Z,9.30
2023-04-07T11:11:11.953Z,9.30
2023-04-07T11:13:42.794Z,9.60
2023-04-07T11:16:10.774Z,9.70
2023-04-07T11:18:38.175Z,9.80
2023-04-07T11:21:07.198Z,9.90
2023-04-07T11:23:42.183Z,9.90
2023-04-07T11:26:11.809Z,10.20
2023-04-07T11:28:49.084Z,10.00
2023-04-07T11:31:31.626Z,9.70
2023-04-07T11:34:03.774Z,9.50
2023-04-07T11:36:40.971Z,9.50
2023-04-07T11:39:20.529Z,9.50
2023-04-07T11:41:49.389Z,9.50
2023-04-07T11:44:17.120Z,9.60
2023-04-07T11:46:55.532Z,9.50
2023-04-07T11:49:23.877Z,9.50
2023-04-07T11:52:18.740Z,9.50
2023-04-07T11:54:53.361Z,9.60
2023-04-07T11:57:28.142Z,9.80
2023-04-07T12:00:12.939Z,9.50
2023-04-07T12:02:40.187Z,9.50
2023-04-07T12:05:07.968Z,9.20
2023-04-07T12:07:36.209Z,9.20
2023-04-07T12:10:20.397Z,9.30
2023-04-07T12:12:48.393Z,9.40
2023-04-07T12:15:15.794Z,9.60
2023-04-07T12:17:49.319Z,9.70
2023-04-07T12:20:16.784Z,9.80
2023-04-07T12:22:43.596Z,9.60
2023-04-07T12:25:10.570Z,9.70
2023-04-07T12:27:43.217Z,9.70
2023-04-07T12:30:10.788Z,9.70
2023-04-07T12:32:38.668Z,10.00
2023-04-07T12:35:06.439Z,10.00
2023-04-07T12:37:33.350Z,10.30
2023-04-07T12:40:00.603Z,10.10
2023-04-07T12:42:28.086Z,10.30
2023-04-07T12:44:55.368Z,10.60
2023-04-07T12:47:22.968Z,10.60
2023-04-07T12:49:50.283Z,10.80
2023-04-07T12:52:17.484Z,10.60
2023-04-07T12:54:45.417Z,10.60
2023-04-07T12:57:13.096Z,10.60
2023-04-07T12:59:40.288Z,10.70
2023-04-07T13:02:10.765Z,10.70
2023-04-07T13:04:40.858Z,10.60
2023-04-07T13:07:08.417Z,10.70
2023-04-07T13:09:35.795Z,10.90
2023-04-07T13:12:03.027Z,10.80
2023-04-07T13:14:29.816Z,11.00
2023-04-07T13:16:56.629Z,10.90
2023-04-07T13:19:23.572Z,10.80
2023-04-07T13:21:53.442Z,10.80
2023-04-07T13:24:21.828Z,10.90
2023-04-07T13:26:49.040Z,11.00
2023-04-07T13:29:17.278Z,10.50
2023-04-07T13:31:46.571Z,10.40
2023-04-07T13:34:13.953Z,10.60
2023-04-07T13:36:41.860Z,10.30
2023-04-07T13:39:09.325Z,10.40
2023-04-07T13:41:36.121Z,10.40
2023-04-07T13:44:02.911Z,10.00
2023-04-07T13:46:32.547Z,10.20
2023-04-07T13:48:59.712Z,10.30
2023-04-07T13:51:28.051Z,10.80
2023-04-07T13:53:55.012Z,10.70
2023-04-07T13:56:22.571Z,10.40
2023-04-07T13:58:49.667Z,10.60
2023-04-07T14:01:16.930Z,11.10
2023-04-07T14:03:43.872Z,11.70
2023-04-07T14:06:10.871Z,11.90
2023-04-07T14:08:37.950Z,11.90
2023-04-07T14:11:05.117Z,11.70
2023-04-07T14:13:31.929Z,12.40
2023-04-07T14:15:58.772Z,12.50
2023-04-07T14:18:28.417Z,13.20
2023-04-07T14:20:55.568Z,12.50
2023-04-07T14:23:33.802Z,11.70
2023-04-07T14:26:01.357Z,11.90
2023-04-07T14:28:28.935Z,11.40
2023-04-07T14:30:56.304Z,11.40
2023-04-07T14:33:23.496Z,11.60
2023-04-07T14:35:50.729Z,11.80
2023-04-07T14:38:18.032Z,11.80
2023-04-07T14:40:45.659Z,11.70
2023-04-07T14:43:14.184Z,11.60
2023-04-07T14:45:40.962Z,11.50
2023-04-07T14:48:07.890Z,11.00
2023-04-07T14:50:34.910Z,11.10
2023-04-07T14:53:02.413Z,11.30
2023-04-07T14:55:30.942Z,11.40
2023-04-07T14:57:57.933Z,11.40
2023-04-07T15:00:26.202Z,11.50
2023-04-07T15:02:56.139Z,11.30
2023-04-07T15:05:23.248Z,11.30
2023-04-07T15:07:51.269Z,11.20
2023-04-07T15:10:18.667Z,11.20
2023-04-07T15:12:51.958Z,11.20
2023-04-07T15:15:18.821Z,11.20
2023-04-07T15:17:45.849Z,11.10
2023-04-07T15:20:13.627Z,11.00
2023-04-07T15:22:40.716Z,10.90
2023-04-07T15:25:08.009Z,10.80
2023-04-07T15:27:35.032Z,10.60
2023-04-07T15:30:01.937Z,10.70
2023-04-07T15:32:31.096Z,10.80
2023-04-07T15:34:57.982Z,10.90
2023-04-07T15:37:25.613Z,10.90
2023-04-07T15:39:52.736Z,10.90
2023-04-07T15:42:19.630Z,10.90
2023-04-07T15:44:46.432Z,10.80
2023-04-07T15:47:13.286Z,10.80
2023-04-07T15:49:41.433Z,10.80
2023-04-07T15:52:09.114Z,10.80
2023-04-07T15:54:35.878Z,10.90
2023-04-07T15:57:02.792Z,11.00
2023-04-07T15:59:31.726Z,10.90
2023-04-07T16:01:59.252Z,10.90
2023-04-07T16:04:27.285Z,11.00
2023-04-07T16:06:54.454Z,11.00
2023-04-07T16:09:21.901Z,11.00
2023-04-07T16:11:48.837Z,10.80
2023-04-07T16:14:15.715Z,10.60
2023-04-07T16:16:44.505Z,10.60
2023-04-07T16:19:11.603Z,10.60
2023-04-07T16:21:40.085Z,10.60
2023-04-07T16:24:06.884Z,10.50
2023-04-07T16:26:33.862Z,10.40
2023-04-07T16:29:00.904Z,10.30
2023-04-07T16:31:28.110Z,10.20
2023-04-07T16:33:54.929Z,10.20
2023-04-07T16:36:21.862Z,10.20
2023-04-07T16:38:49.794Z,10.20
2023-04-07T16:41:16.816Z,10.20
2023-04-07T16:43:44.042Z,10.10
2023-04-07T16:46:11.248Z,10.10
2023-04-07T16:48:37.992Z,10.00
2023-04-07T16:51:04.931Z,10.10
2023-04-07T16:53:31.747Z,10.20
2023-04-07T16:55:58.502Z,10.20
2023-04-07T16:58:26.012Z,10.10
2023-04-07T17:00:52.778Z,10.10
2023-04-07T17:03:19.635Z,10.10
2023-04-07T17:05:47.478Z,10.00
2023-04-07T17:08:14.321Z,10.00
2023-04-07T17:10:41.141Z,9.90
2023-04-07T17:13:07.919Z,10.00
2023-04-07T17:15:38.446Z,10.00
2023-04-07T17:18:06.484Z,9.90
2023-04-07T17:20:33.740Z,9.90
2023-04-07T17:23:00.886Z,10.00
2023-04-07T17:25:27.832Z,10.00
2023-04-07T17:27:55.304Z,9.90
2023-04-07T17:30:22.538Z,9.80
2023-04-07T17:32:53.555Z,9.70
2023-04-07T17:35:22.736Z,9.80
2023-04-07T17:37:51.176Z,9.80
2023-04-07T17:40:18.355Z,9.80
2023-04-07T17:42:45.999Z,10.00
2023-04-07T17:45:12.966Z,9.90
2023-04-07T17:47:40.401Z,9.80
2023-04-07T17:50:07.745Z,9.90
2023-04-07T17:52:34.576Z,10.00
2023-04-07T17:55:01.696Z,9.80
2023-04-07T17:57:28.616Z,9.80
2023-04-07T17:59:55.506Z,9.90
2023-04-07T18:02:22.988Z,9.70
2023-04-07T18:04:51.030Z,9.80
2023-04-07T18:07:18.361Z,9.80
2023-04-07T18:09:45.311Z,9.80
2023-04-07T18:12:12.410Z,9.80
2023-04-07T18:14:39.290Z,9.70
2023-04-07T18:17:06.146Z,9.50
2023-04-07T18:19:34.021Z,9.50
2023-04-07T18:22:01.092Z,9.50
2023-04-07T18:24:29.826Z,9.40
2023-04-07T18:26:57.251Z,9.50
2023-04-07T18:29:24.207Z,9.60
2023-04-07T18:31:51.660Z,9.70
2023-04-07T18:34:18.579Z,9.60
2023-04-07T18:36:47.674Z,9.60
2023-04-07T18:39:14.639Z,9.60
2023-04-07T18:41:44.905Z,9.70
2023-04-07T18:44:12.300Z,9.60
2023-04-07T18:46:39.434Z,9.50
2023-04-07T18:49:06.616Z,9.60
2023-04-07T18:51:33.960Z,9.50
2023-04-07T18:54:01.123Z,9.40
2023-04-07T18:56:28.722Z,9.50
2023-04-07T18:58:55.820Z,9.60
2023-04-07T19:01:23.077Z,9.60
2023-04-07T19:03:50.642Z,9.40
2023-04-07T19:06:17.955Z,9.40
2023-04-07T19:08:45.424Z,9.30
2023-04-07T19:11:12.253Z,9.30
2023-04-07T19:13:39.347Z,9.20
2023-04-07T19:16:07.668Z,9.30
2023-04-07T19:18:34.645Z,9.20
2023-04-07T19:21:01.602Z,9.20
2023-04-07T19:23:28.761Z,9.20
2023-04-07T19:25:55.628Z,9.10
2023-04-07T19:28:22.526Z,9.10
2023-04-07T19:30:49.515Z,9.10
2023-04-07T19:33:16.383Z,9.10
2023-04-07T19:35:43.505Z,9.10
2023-04-07T19:38:10.693Z,9.10
2023-04-07T19:40:37.646Z,9.10
2023-04-07T19:43:04.803Z,9.00
2023-04-07T19:45:31.756Z,9.20
2023-04-07T19:47:59.258Z,9.10
2023-04-07T19:50:26.972Z,9.10
2023-04-07T19:52:54.102Z,9.10
2023-04-07T19:55:25.495Z,9.00
2023-04-07T19:57:53.812Z,9.00
2023-04-07T20:00:24.090Z,9.00
2023-04-07T20:02:51.051Z,9.10
2023-04-07T20:05:19.082Z,9.10
2023-04-07T20:07:46.760Z,9.00
2023-04-07T20:10:13.900Z,8.90
2023-04-07T20:12:41.021Z,9.00
2023-04-07T20:15:08.733Z,8.90
2023-04-07T20:17:37.371Z,8.90
2023-04-07T20:20:06.183Z,8.90
2023-04-07T20:22:36.582Z,8.80
2023-04-07T20:25:05.719Z,8.90
2023-04-07T20:27:33.225Z,9.00
2023-04-07T20:30:02.924Z,9.00
2023-04-07T20:32:31.403Z,9.00
2023-04-07T20:34:58.510Z,9.10
2023-04-07T20:37:26.449Z,9.10
2023-04-07T20:39:55.873Z,9.20
2023-04-07T20:42:22.997Z,9.00
2023-04-07T20:44:49.894Z,8.90
2023-04-07T20:47:16.709Z,8.80
2023-04-07T20:49:43.886Z,8.90
2023-04-07T20:52:10.805Z,8.90
2023-04-07T20:54:39.344Z,8.90
2023-04-07T20:57:06.509Z,9.00
2023-04-07T20:59:33.750Z,8.90
2023-04-07T21:02:01.092Z,9.00
2023-04-07T21:04:28.627Z,9.00
2023-04-07T21:06:55.790Z,9.00
2023-04-07T21:09:22.630Z,8.90
2023-04-07T21:11:49.759Z,9.00
2023-04-07T21:14:16.888Z,9.00
2023-04-07T21:16:43.951Z,9.00
2023-04-07T21:19:11.271Z,9.00
2023-04-07T21:21:38.416Z,9.00
2023-04-07T21:24:05.605Z,8.90
2023-04-07T21:26:32.715Z,8.80
2023-04-07T21:28:59.825Z,8.70
2023-04-07T21:31:26.752Z,8.70
2023-04-07T21:33:54.039Z,8.70
2023-04-07T21:36:21.722Z,8.70
2023-04-07T21:38:49.891Z,8.70
2023-04-07T21:41:17.274Z,8.60
2023-04-07T21:43:44.193Z,8.60
2023-04-07T21:46:11.052Z,8.70
2023-04-07T21:48:37.850Z,8.60
2023-04-07T21:51:05.006Z,8.60
2023-04-07T21:53:32.391Z,8.60
2023-04-07T21:55:59.558Z,8.60
2023-04-07T21:58:26.452Z,8.60
2023-04-07T22:00:54.227Z,8.60
2023-04-07T22:03:22.408Z,8.50
2023-04-07T22:05:49.339Z,8.60
2023-04-07T22:08:16.976Z,8.60
2023-04-07T22:10:43.970Z,8.60
2023-04-07T22:13:11.167Z,8.60
2023-04-07T22:15:37.991Z,8.70
2023-04-07T22:18:05.094Z,8.70
2023-04-07T22:20:32.171Z,8.60
2023-04-07T22:22:59.384Z,8.60
2023-04-07T22:25:26.549Z,8.80
2023-04-07T22:27:53.728Z,8.70
2023-04-07T22:30:21.026Z,8.70
2023-04-07T22:32:48.319Z,8.80
2023-04-07T22:35:15.710Z,8.80
2023-04-07T22:37:42.931Z,8.90
2023-04-07T22:40:10.805Z,8.90
2023-04-07T22:42:37.886Z,8.90
2023-04-07T22:45:05.534Z,8.90
2023-04-07T22:47:32.417Z,8.80
2023-04-07T22:49:59.600Z,8.70
2023-04-07T22:52:26.352Z,8.70
2023-04-07T22:54:53.288Z,8.80
2023-04-07T22:57:21.203Z,8.80
2023-04-07T22:59:47.970Z,8.80
2023-04-07T23:02:15.065Z,8.70
2023-04-07T23:04:42.238Z,8.60
2023-04-07T23:07:09.016Z,8.70
2023-04-07T23:09:36.299Z,8.90
2023-04-07T23:12:03.454Z,8.60
2023-04-07T23:14:30.603Z,8.50
2023-04-07T23:16:57.906Z,8.50
2023-04-07T23:19:25.226Z,8.40
2023-04-07T23:21:52.630Z,8.40
2023-04-07T23:24:19.697Z,8.40
2023-04-07T23:26:46.523Z,8.40
2023-04-07T23:29:13.380Z,8.40
2023-04-07T23:31:40.510Z,8.40
2023-04-07T23:34:07.342Z,8.30
2023-04-07T23:36:34.199Z,8.40
2023-04-07T23:39:02.169Z,8.30
2023-04-07T23:41:29.116Z,8.30
2023-04-07T23:43:56.285Z,8.40
2023-04-07T23:46:24.017Z,8.40
2023-04-07T23:48:51.307Z,8.30
2023-04-07T23:51:18.622Z,8.30
2023-04-07T23:53:46.195Z,8.30
2023-04-07T23:56:13.034Z,8.30
2023-04-07T23:58:39.856Z,8.30
